Terminal Aerodrome Forecast
Issued by NWS

Home | Current Version | Previous Version | Text Only | Print | Product List | Glossary Off
Versions: 1 2 3 4 5 6 7 8 9 10 11 12 13 14 15 16 17

215
FTUS43 KGRB 290501 AAA
TAFAUW
TAF AMD
KAUW 290501Z 2905/2924 06004KT P6SM SCT010 OVC030
      TEMPO 2905/2907 -SHRA BKN010
     FM290700 00000KT P6SM OVC050
     FM291600 05006KT P6SM BKN070
     FM291700 05007KT P6SM SCT070
     FM292000 08006KT P6SM SCT100
     FM292300 11006KT P6SM SCT090=

USA.gov is the U.S. government's official web portal to all federal, state and local government web resources and services.